Time;durP1;ratioP1;P1;durP2;ratioP2;P2;SDS_P1;SDS_P2;PMS_P1;PMS_P2;Temp;Humidity;BMP_temperature;BMP_pressure;BME280_temperature;BME280_humidity;BME280_pressure;Samples;Min_cycle;Max_cycle;Signal;HPM_P1;HPM_P2
2022/02/08 00:00:12;;;;;;;21.17;4.63;;;4.00;99.90;;;;;;5117079;27;20388;-81
2022/02/08 00:02:43;;;;;;;17.40;4.50;;;4.00;99.90;;;;;;5076372;28;20384;-82
2022/02/08 00:05:13;;;;;;;19.98;4.82;;;4.00;99.90;;;;;;5096530;28;20392;-83
2022/02/08 00:07:40;;;;;;;18.98;4.88;;;4.10;99.90;;;;;;5105959;28;20463;-81
2022/02/08 00:10:06;;;;;;;15.90;4.25;;;4.10;99.90;;;;;;5110972;28;20415;-82
2022/02/08 00:12:31;;;;;;;20.15;4.45;;;4.10;99.90;;;;;;5102682;28;20383;-83
2022/02/08 00:14:58;;;;;;;18.35;4.57;;;4.10;99.90;;;;;;5115138;28;20852;-82
2022/02/08 00:17:23;;;;;;;22.83;4.65;;;4.10;99.90;;;;;;5099024;28;20365;-83
2022/02/08 00:19:49;;;;;;;24.03;5.27;;;4.20;99.90;;;;;;5078939;28;20754;-82
2022/02/08 00:22:14;;;;;;;21.50;4.35;;;4.10;99.90;;;;;;5094004;28;20433;-81
2022/02/08 00:24:40;;;;;;;14.65;4.13;;;4.10;99.90;;;;;;5095383;28;20408;-82
2022/02/08 00:27:07;;;;;;;16.67;4.63;;;4.20;99.90;;;;;;5110642;28;20397;-82
2022/02/08 00:29:33;;;;;;;18.88;4.28;;;4.30;99.90;;;;;;5111222;28;20388;-82
2022/02/08 00:31:59;;;;;;;19.48;4.68;;;4.30;99.90;;;;;;5096910;28;20394;-81
2022/02/08 00:34:24;;;;;;;19.97;5.13;;;4.30;99.90;;;;;;5113924;28;20362;-82
2022/02/08 00:36:50;;;;;;;19.80;5.13;;;4.20;99.90;;;;;;5112193;28;20391;-81
2022/02/08 00:39:16;;;;;;;17.00;4.75;;;4.30;99.90;;;;;;5114976;28;20390;-82
2022/02/08 00:41:41;;;;;;;19.90;4.85;;;4.20;99.90;;;;;;5110802;28;20383;-82
2022/02/08 00:46:43;;;;;;;15.20;4.10;;;4.30;99.90;;;;;;5093160;28;20411;-82
2022/02/08 00:49:11;;;;;;;17.38;4.65;;;4.20;99.90;;;;;;5079536;28;20388;-82
2022/02/08 00:51:43;;;;;;;18.58;4.63;;;4.20;99.90;;;;;;5100504;28;20390;-82
2022/02/08 00:54:10;;;;;;;18.08;4.43;;;4.20;99.90;;;;;;5094834;28;20745;-83
2022/02/08 00:56:36;;;;;;;19.13;4.35;;;4.20;99.90;;;;;;5101012;28;20383;-82
2022/02/08 00:59:02;;;;;;;23.63;4.80;;;4.20;99.90;;;;;;5086031;28;20477;-82
2022/02/08 01:01:30;;;;;;;15.82;4.75;;;4.20;99.90;;;;;;5113138;28;20379;-82
2022/02/08 01:03:56;;;;;;;21.00;4.95;;;4.00;99.90;;;;;;5110551;28;20383;-82
2022/02/08 01:06:22;;;;;;;20.40;5.20;;;3.90;99.90;;;;;;5107203;28;20919;-82
2022/02/08 01:08:47;;;;;;;17.85;4.47;;;3.80;99.90;;;;;;5096576;28;20396;-82
2022/02/08 01:11:13;;;;;;;15.60;3.87;;;3.70;99.90;;;;;;5073405;28;20766;-82
2022/02/08 01:13:40;;;;;;;18.63;4.47;;;3.70;99.90;;;;;;5107368;28;20425;-82
2022/02/08 01:16:07;;;;;;;14.97;3.67;;;3.60;99.90;;;;;;5092209;28;20386;-81
2022/02/08 01:18:37;;;;;;;16.37;4.27;;;3.50;99.90;;;;;;5105761;28;20416;-81
2022/02/08 01:21:04;;;;;;;21.70;4.30;;;3.50;99.90;;;;;;5105252;28;20401;-82
2022/02/08 01:23:30;;;;;;;22.15;4.45;;;3.40;99.90;;;;;;5092698;28;20509;-81
2022/02/08 01:25:59;;;;;;;21.50;4.50;;;3.30;99.90;;;;;;5091255;28;20462;-82
2022/02/08 01:28:38;;;;;;;16.73;4.33;;;3.40;99.90;;;;;;5091102;28;20909;-82
2022/02/08 01:31:07;;;;;;;17.73;4.60;;;3.30;99.90;;;;;;5106446;28;20460;-81
2022/02/08 01:39:26;;;;;;;18.90;4.90;;;3.00;99.90;;;;;;5099270;28;20399;-81
2022/02/08 01:51:49;;;;;;;18.38;4.47;;;2.90;99.90;;;;;;5089401;28;20435;-81
2022/02/08 01:54:15;;;;;;;19.40;4.18;;;2.90;99.90;;;;;;5093401;28;20383;-82
2022/02/08 01:56:41;;;;;;;17.50;4.23;;;2.90;99.90;;;;;;5109173;28;20386;-81
2022/02/08 01:59:06;;;;;;;14.43;3.60;;;2.90;99.90;;;;;;5111094;28;20378;-81
2022/02/08 02:01:32;;;;;;;18.97;4.63;;;2.80;99.90;;;;;;5113739;28;20379;-82
2022/02/08 02:03:58;;;;;;;17.37;4.40;;;2.80;99.90;;;;;;5111289;28;20460;-81
2022/02/08 02:06:24;;;;;;;18.63;4.13;;;2.80;99.90;;;;;;5095607;28;20408;-81
2022/02/08 02:08:49;;;;;;;14.90;4.25;;;2.90;99.90;;;;;;5103790;28;20816;-82
2022/02/08 02:11:15;;;;;;;14.73;4.00;;;2.90;99.90;;;;;;5075939;28;20406;-82
2022/02/08 02:13:47;;;;;;;21.42;4.53;;;2.90;99.90;;;;;;5112614;28;20374;-82
2022/02/08 02:16:18;;;;;;;14.10;3.85;;;2.80;99.90;;;;;;5092831;28;20830;-81
2022/02/08 02:18:44;;;;;;;14.77;3.90;;;2.90;99.90;;;;;;5093019;28;20386;-81
2022/02/08 02:21:09;;;;;;;15.97;4.33;;;3.10;99.90;;;;;;5092369;28;20909;-81
2022/02/08 02:23:35;;;;;;;17.80;4.20;;;3.10;99.90;;;;;;5105520;28;20370;-81
2022/02/08 02:26:00;;;;;;;19.10;4.32;;;3.00;99.90;;;;;;5093688;28;20402;-80
2022/02/08 02:28:27;;;;;;;17.13;4.20;;;3.10;99.90;;;;;;5094218;28;20482;-81
2022/02/08 02:30:53;;;;;;;17.35;3.90;;;3.00;99.90;;;;;;5111540;28;20409;-81
2022/02/08 02:33:18;;;;;;;18.27;4.60;;;3.10;99.90;;;;;;5111989;28;20935;-81
2022/02/08 02:35:47;;;;;;;17.73;4.20;;;3.10;99.90;;;;;;5095828;28;20391;-82
2022/02/08 02:38:12;;;;;;;15.95;4.60;;;3.10;99.90;;;;;;5091589;28;20416;-81
2022/02/08 02:40:42;;;;;;;17.63;3.78;;;3.10;99.90;;;;;;5111154;28;20383;-81
2022/02/08 02:43:09;;;;;;;17.73;4.43;;;3.10;99.90;;;;;;5092880;28;20386;-82
2022/02/08 02:45:35;;;;;;;16.58;4.80;;;3.20;99.90;;;;;;5093818;28;20457;-81
2022/02/08 02:48:01;;;;;;;16.15;4.28;;;3.20;99.90;;;;;;5111246;28;20448;-81
2022/02/08 02:50:26;;;;;;;22.42;5.60;;;3.20;99.90;;;;;;5102061;28;20788;-81
2022/02/08 02:52:52;;;;;;;19.17;4.30;;;3.20;99.90;;;;;;5073348;28;20392;-81
2022/02/08 02:55:19;;;;;;;18.10;4.93;;;3.10;99.90;;;;;;5107005;28;20373;-82
2022/02/08 02:57:48;;;;;;;17.67;4.82;;;3.00;99.90;;;;;;5092328;28;20372;-81
2022/02/08 03:00:28;;;;;;;18.75;4.90;;;3.10;99.90;;;;;;5092088;28;20870;-81
2022/02/08 03:03:01;;;;;;;21.00;5.35;;;3.10;99.90;;;;;;5106299;28;20397;-81
2022/02/08 03:18:49;;;;;;;18.58;6.13;;;2.90;99.90;;;;;;5103281;28;20394;-80
2022/02/08 03:21:15;;;;;;;16.98;6.15;;;2.90;99.90;;;;;;5093154;28;20385;-81
2022/02/08 03:23:41;;;;;;;20.08;6.30;;;2.90;99.90;;;;;;5092280;28;20392;-80
2022/02/08 03:26:07;;;;;;;18.95;6.72;;;3.00;99.90;;;;;;5092034;28;20377;-80
2022/02/08 03:28:33;;;;;;;20.20;6.80;;;3.10;99.90;;;;;;5106053;28;20469;-81
2022/02/08 03:30:59;;;;;;;18.77;7.60;;;3.20;99.90;;;;;;5111147;28;20760;-81
2022/02/08 03:33:26;;;;;;;18.85;7.20;;;3.10;99.90;;;;;;5092634;28;20379;-80
2022/02/08 03:35:54;;;;;;;21.75;7.63;;;3.30;99.90;;;;;;5106055;28;20499;-81
2022/02/08 03:38:28;;;;;;;21.27;6.70;;;3.30;99.90;;;;;;5086286;28;20424;-80
2022/02/08 03:40:55;;;;;;;24.25;6.68;;;3.30;99.90;;;;;;5091624;28;20374;-80
2022/02/08 03:45:50;;;;;;;18.17;6.65;;;3.40;99.90;;;;;;5098666;28;20417;-80
2022/02/08 03:48:19;;;;;;;19.60;6.67;;;3.40;99.90;;;;;;5107624;28;21005;-80
2022/02/08 03:50:51;;;;;;;16.05;5.90;;;3.40;99.90;;;;;;5110410;28;20446;-80
2022/02/08 03:53:19;;;;;;;18.43;5.90;;;3.50;99.90;;;;;;5091859;28;20418;-80
2022/02/08 03:55:47;;;;;;;15.73;6.15;;;3.60;99.90;;;;;;5092665;28;20420;-80
2022/02/08 03:58:13;;;;;;;12.18;6.10;;;3.70;99.90;;;;;;5110389;28;20714;-81
2022/02/08 04:01:02;;;;;;;16.93;5.90;;;3.70;99.90;;;;;;5091196;28;20389;-80
2022/02/08 04:03:31;;;;;;;16.35;6.00;;;3.70;99.90;;;;;;5092967;28;20395;-80
2022/02/08 04:05:58;;;;;;;16.73;5.68;;;3.70;99.90;;;;;;5089335;28;20406;-80
2022/02/08 04:08:24;;;;;;;15.07;5.90;;;3.80;99.90;;;;;;5073844;28;20487;-79
2022/02/08 04:10:50;;;;;;;13.30;5.23;;;3.70;99.90;;;;;;5097056;28;20498;-80
2022/02/08 04:13:21;;;;;;;16.80;5.63;;;3.80;99.90;;;;;;5089131;28;20394;-80
2022/02/08 04:16:26;;;;;;;15.18;5.53;;;3.90;99.90;;;;;;5092534;28;20394;-79
2022/02/08 04:42:19;;;;;;;13.65;5.25;;;4.10;99.90;;;;;;5096840;28;20606;-81
2022/02/08 04:47:34;;;;;;;15.15;4.93;;;4.10;99.90;;;;;;5110632;28;20407;-80
2022/02/08 04:50:00;;;;;;;14.07;5.15;;;4.10;99.90;;;;;;5074701;28;20502;-81
2022/02/08 04:52:27;;;;;;;14.93;4.88;;;4.20;99.90;;;;;;5101915;28;20387;-80
2022/02/08 04:57:27;;;;;;;15.80;5.70;;;4.10;99.90;;;;;;5088869;28;20475;-80
2022/02/08 05:34:07;;;;;;;15.27;6.23;;;4.50;99.90;;;;;;5103391;28;20456;-80
2022/02/08 05:42:29;;;;;;;16.85;8.48;;;4.60;99.90;;;;;;5112274;28;20393;-81
2022/02/08 05:45:03;;;;;;;17.08;8.23;;;4.60;99.90;;;;;;5078608;28;20501;-81
2022/02/08 05:47:29;;;;;;;21.27;8.70;;;4.70;99.90;;;;;;5093352;28;20407;-81
2022/02/08 05:50:10;;;;;;;22.03;9.20;;;4.70;99.90;;;;;;5076636;28;20376;-81
2022/02/08 05:55:11;;;;;;;20.80;8.95;;;4.70;99.90;;;;;;5092458;28;20391;-81
2022/02/08 05:57:37;;;;;;;15.48;8.50;;;4.80;99.90;;;;;;5103047;28;20745;-80
2022/02/08 06:00:05;;;;;;;19.67;9.25;;;4.70;99.90;;;;;;5074288;28;20440;-80
2022/02/08 06:02:30;;;;;;;15.90;8.70;;;4.80;99.90;;;;;;5108919;28;20720;-81
2022/02/08 06:04:56;;;;;;;19.92;9.68;;;4.80;99.90;;;;;;5108489;28;20393;-81
2022/02/08 06:07:23;;;;;;;18.43;9.90;;;4.80;99.90;;;;;;5104434;28;20388;-81
2022/02/08 06:09:53;;;;;;;18.75;9.05;;;4.90;99.90;;;;;;5093992;28;20398;-80
2022/02/08 06:12:22;;;;;;;18.05;10.00;;;4.90;99.90;;;;;;5088397;28;21038;-81
2022/02/08 06:14:55;;;;;;;21.45;9.85;;;4.90;99.90;;;;;;5099797;28;20419;-79
2022/02/08 06:17:21;;;;;;;16.43;9.30;;;4.90;99.90;;;;;;5089450;28;20787;-81
2022/02/08 06:19:47;;;;;;;20.43;10.07;;;5.00;99.90;;;;;;5075292;28;20406;-79
2022/02/08 06:22:12;;;;;;;18.83;10.10;;;5.00;99.90;;;;;;5105006;28;20404;-81
2022/02/08 06:24:38;;;;;;;19.23;10.25;;;4.80;99.90;;;;;;5110609;28;20382;-81
2022/02/08 06:27:04;;;;;;;16.98;9.57;;;5.00;99.90;;;;;;5109915;28;20818;-83
2022/02/08 06:29:29;;;;;;;21.90;11.13;;;5.10;99.90;;;;;;5095752;28;20477;-81
2022/02/08 06:31:55;;;;;;;25.17;13.20;;;5.00;99.90;;;;;;5092903;28;20885;-81
2022/02/08 06:34:23;;;;;;;22.50;11.70;;;5.00;99.90;;;;;;5092730;28;20792;-83
2022/02/08 06:36:57;;;;;;;25.15;11.90;;;5.10;99.90;;;;;;5107538;28;20395;-82
2022/02/08 06:39:22;;;;;;;21.02;11.57;;;5.00;99.90;;;;;;5104669;28;20484;-82
2022/02/08 06:41:48;;;;;;;22.97;12.10;;;5.00;99.90;;;;;;5092746;28;20455;-81
2022/02/08 06:44:14;;;;;;;21.35;11.52;;;5.00;99.90;;;;;;5105746;28;20396;-80
2022/02/08 06:46:39;;;;;;;24.33;12.48;;;5.00;99.90;;;;;;5108343;28;20450;-80
2022/02/08 06:49:05;;;;;;;21.33;12.27;;;5.10;99.90;;;;;;5103105;28;20380;-81
2022/02/08 06:51:30;;;;;;;20.97;11.87;;;5.20;99.90;;;;;;5091429;28;20384;-80
2022/02/08 06:53:56;;;;;;;20.37;11.53;;;5.30;99.90;;;;;;5105628;28;20383;-81
2022/02/08 06:56:22;;;;;;;21.10;10.95;;;5.30;99.90;;;;;;5092794;28;20784;-82
2022/02/08 06:58:52;;;;;;;23.93;13.17;;;5.30;99.90;;;;;;5096613;28;20389;-81
2022/02/08 07:01:25;;;;;;;25.58;13.23;;;5.30;99.90;;;;;;5085683;28;20384;-81
2022/02/08 07:03:52;;;;;;;24.15;12.77;;;5.20;99.90;;;;;;5090298;28;20383;-81
2022/02/08 07:06:18;;;;;;;23.30;14.03;;;5.10;99.90;;;;;;5108718;28;20782;-82
2022/02/08 07:08:43;;;;;;;24.10;14.00;;;5.10;99.90;;;;;;5097530;28;20375;-81
2022/02/08 07:11:15;;;;;;;26.50;13.97;;;5.10;99.90;;;;;;5105078;28;20378;-81
2022/02/08 07:13:43;;;;;;;26.08;15.27;;;5.10;99.90;;;;;;5101692;28;20402;-81
2022/02/08 07:16:09;;;;;;;26.85;16.05;;;5.00;99.90;;;;;;5102580;28;20380;-81
2022/02/08 07:18:34;;;;;;;23.15;15.75;;;5.00;99.90;;;;;;5091343;28;20429;-81
2022/02/08 07:21:00;;;;;;;28.33;16.03;;;5.00;99.90;;;;;;5106744;28;20494;-83
2022/02/08 07:23:25;;;;;;;28.93;16.43;;;4.90;99.90;;;;;;5093932;28;20395;-82
2022/02/08 07:25:54;;;;;;;29.75;17.00;;;4.90;99.90;;;;;;5092456;28;20385;-82
2022/02/08 07:28:20;;;;;;;30.17;17.10;;;4.80;99.90;;;;;;5111931;27;20438;-84
2022/02/08 07:30:46;;;;;;;27.92;16.98;;;4.90;99.90;;;;;;5113236;27;20380;-82
2022/02/08 07:33:12;;;;;;;27.33;17.30;;;5.00;99.90;;;;;;5106330;28;20464;-83
2022/02/08 07:36:20;;;;;;;30.33;18.38;;;4.90;99.90;;;;;;5090827;28;20905;-82
2022/02/08 07:38:35;;;;;;;25.73;16.80;;;4.90;99.90;;;;;;5107547;28;20402;-83
2022/02/08 07:43:27;;;;;;;24.65;16.23;;;5.10;99.90;;;;;;5131414;27;20365;-83
2022/02/08 07:45:52;;;;;;;28.87;16.23;;;5.10;99.90;;;;;;5131365;27;20773;-83
2022/02/08 07:48:18;;;;;;;26.80;16.63;;;5.10;99.90;;;;;;5089125;28;20451;-83
2022/02/08 07:50:47;;;;;;;27.03;16.17;;;5.00;99.90;;;;;;5090139;28;20826;-83
2022/02/08 07:53:13;;;;;;;28.33;16.40;;;5.10;99.90;;;;;;5090275;28;20376;-83
2022/02/08 07:55:40;;;;;;;26.17;15.70;;;5.10;99.90;;;;;;5106856;28;20396;-82
2022/02/08 07:58:06;;;;;;;21.45;14.63;;;5.00;99.90;;;;;;5110641;28;20453;-83
2022/02/08 08:00:32;;;;;;;22.75;14.45;;;5.00;99.90;;;;;;5092405;28;20732;-82
2022/02/08 08:02:58;;;;;;;24.00;15.50;;;5.20;99.90;;;;;;5092520;28;20385;-82
2022/02/08 08:05:25;;;;;;;27.10;14.52;;;5.20;99.90;;;;;;5102547;28;20388;-82
2022/02/08 08:07:51;;;;;;;25.08;15.15;;;5.30;99.90;;;;;;5073720;28;20396;-83
2022/02/08 08:10:19;;;;;;;23.73;14.95;;;5.30;99.90;;;;;;5091263;28;20375;-82
2022/02/08 08:12:49;;;;;;;25.00;14.25;;;5.30;99.90;;;;;;5093538;28;20391;-81
2022/02/08 08:18:13;;;;;;;24.88;14.18;;;5.20;99.90;;;;;;5123070;27;20390;-82
2022/02/08 08:20:39;;;;;;;24.23;14.45;;;5.20;99.90;;;;;;5092423;28;20845;-83
2022/02/08 08:23:04;;;;;;;23.35;13.48;;;5.40;99.90;;;;;;5093329;28;20385;-82
2022/02/08 08:25:30;;;;;;;21.63;13.63;;;5.30;99.90;;;;;;5094464;28;20386;-82
2022/02/08 08:27:56;;;;;;;21.48;14.10;;;5.40;99.90;;;;;;5109598;28;20398;-83
2022/02/08 08:30:22;;;;;;;21.23;13.60;;;5.40;99.90;;;;;;5094141;28;20816;-82
2022/02/08 08:32:47;;;;;;;22.30;14.43;;;5.40;99.90;;;;;;5090697;28;20797;-82
2022/02/08 08:35:19;;;;;;;20.93;13.40;;;5.40;99.90;;;;;;5092081;28;20392;-81
2022/02/08 08:37:46;;;;;;;22.30;13.90;;;5.50;99.90;;;;;;5091954;28;20462;-82
2022/02/08 08:40:36;;;;;;;19.60;13.68;;;5.50;99.90;;;;;;5090426;28;20420;-82
2022/02/08 08:43:31;;;;;;;23.33;13.55;;;5.60;99.90;;;;;;5091058;28;20384;-82
2022/02/08 08:53:47;;;;;;;19.10;13.00;;;5.80;99.90;;;;;;5090471;28;20383;-82
2022/02/08 08:56:13;;;;;;;21.63;12.43;;;5.70;99.90;;;;;;5094134;28;20932;-81
2022/02/08 08:58:44;;;;;;;19.45;13.07;;;5.70;99.90;;;;;;5096007;28;20385;-82
2022/02/08 09:01:13;;;;;;;19.27;12.57;;;5.90;99.90;;;;;;5092634;28;20495;-82
2022/02/08 09:03:39;;;;;;;18.95;12.60;;;5.90;99.90;;;;;;5110658;28;20491;-82
2022/02/08 09:06:06;;;;;;;17.52;11.93;;;5.90;99.90;;;;;;5111248;28;20377;-82
2022/02/08 09:08:33;;;;;;;19.53;11.80;;;5.90;99.90;;;;;;5111419;28;20496;-82
2022/02/08 09:11:09;;;;;;;17.67;12.00;;;6.00;99.90;;;;;;5086056;28;20758;-83
2022/02/08 09:13:42;;;;;;;16.60;11.73;;;6.00;99.90;;;;;;5071603;28;20403;-82
2022/02/08 09:17:04;;;;;;;17.55;12.27;;;6.10;99.90;;;;;;5072291;28;20392;-82
2022/02/08 09:22:07;;;;;;;18.53;11.40;;;6.30;99.90;;;;;;5091498;28;20456;-83
2022/02/08 09:34:48;;;;;;;15.23;10.50;;;6.30;99.90;;;;;;5102763;28;20388;-82
2022/02/08 09:37:18;;;;;;;13.82;10.98;;;6.50;99.90;;;;;;5093569;28;20383;-83
2022/02/08 09:39:46;;;;;;;13.77;10.20;;;6.50;99.90;;;;;;5094585;28;20380;-83
2022/02/08 09:42:12;;;;;;;13.73;9.87;;;6.40;99.90;;;;;;5108313;28;20363;-82
2022/02/08 09:44:38;;;;;;;12.95;9.95;;;6.40;99.90;;;;;;5079464;28;20390;-83
2022/02/08 09:47:08;;;;;;;16.05;11.02;;;6.50;99.90;;;;;;5090723;28;20403;-83
2022/02/08 09:49:40;;;;;;;16.83;11.30;;;6.50;99.90;;;;;;5108392;28;20386;-82
2022/02/08 09:52:06;;;;;;;14.43;10.20;;;6.50;99.90;;;;;;5087739;28;20379;-82
2022/02/08 09:54:33;;;;;;;15.37;10.60;;;6.60;99.90;;;;;;5080698;28;20425;-82
2022/02/08 09:56:58;;;;;;;15.13;10.55;;;6.50;99.90;;;;;;5109856;28;20884;-82
2022/02/08 09:59:24;;;;;;;11.65;9.68;;;6.50;99.90;;;;;;5109113;28;20419;-82
2022/02/08 10:01:54;;;;;;;12.50;9.50;;;6.60;99.90;;;;;;5099938;28;20535;-83
2022/02/08 10:04:20;;;;;;;15.07;10.32;;;6.60;99.90;;;;;;5106088;28;20794;-81
2022/02/08 10:06:46;;;;;;;11.73;9.82;;;6.70;99.90;;;;;;5108387;28;20942;-84
2022/02/08 10:09:12;;;;;;;13.48;9.15;;;6.70;99.90;;;;;;5091437;28;20385;-83
2022/02/08 10:11:53;;;;;;;10.88;9.13;;;6.80;99.90;;;;;;5081299;28;20388;-82
2022/02/08 10:22:42;;;;;;;10.23;8.80;;;7.00;99.90;;;;;;5095223;28;20495;-80
2022/02/08 10:25:13;;;;;;;10.65;8.95;;;7.00;99.90;;;;;;5105905;28;20730;-82
2022/02/08 10:27:44;;;;;;;12.27;8.98;;;7.10;99.90;;;;;;5075143;28;20909;-81
2022/02/08 10:38:23;;;;;;;12.57;9.55;;;7.40;99.90;;;;;;5096744;28;20402;-81
2022/02/08 10:40:51;;;;;;;11.00;9.90;;;7.60;99.90;;;;;;5084179;28;20903;-82
2022/02/08 10:43:18;;;;;;;11.88;9.00;;;7.60;99.90;;;;;;5114890;28;20459;-80
2022/02/08 10:45:45;;;;;;;13.20;9.52;;;7.50;99.90;;;;;;5114180;28;20379;-81
2022/02/08 10:48:21;;;;;;;11.73;10.13;;;7.50;99.90;;;;;;5111738;28;20433;-81
2022/02/08 10:50:52;;;;;;;13.38;10.55;;;7.40;99.90;;;;;;5096931;28;20391;-81
2022/02/08 10:53:20;;;;;;;12.43;10.23;;;7.40;99.90;;;;;;5096664;28;20417;-81
2022/02/08 11:00:52;;;;;;;12.40;10.50;;;7.60;99.90;;;;;;5113456;28;20375;-81
2022/02/08 11:03:28;;;;;;;14.20;10.68;;;7.50;99.90;;;;;;5097130;28;20382;-81
2022/02/08 11:06:14;;;;;;;14.13;10.63;;;7.60;99.90;;;;;;5097164;28;20390;-82
2022/02/08 11:08:57;;;;;;;13.82;11.05;;;7.70;99.90;;;;;;5115273;28;20417;-81
2022/02/08 11:14:09;;;;;;;14.53;11.27;;;7.90;99.90;;;;;;5112836;28;20469;-81
2022/02/08 11:17:18;;;;;;;13.05;11.52;;;7.80;99.90;;;;;;5113814;28;20394;-81
2022/02/08 11:22:58;;;;;;;18.15;13.63;;;7.90;99.90;;;;;;5112817;28;20867;-82
2022/02/08 11:25:29;;;;;;;16.52;14.02;;;7.90;99.90;;;;;;5111608;28;20387;-82
2022/02/08 11:28:47;;;;;;;18.77;14.75;;;7.90;99.90;;;;;;5113950;28;20751;-82
2022/02/08 11:31:27;;;;;;;19.73;16.13;;;8.00;99.90;;;;;;4992918;28;20506;-82
2022/02/08 11:40:08;;;;;;;19.75;16.10;;;8.30;99.90;;;;;;5113391;28;20820;-83
2022/02/08 11:53:17;;;;;;;19.17;14.82;;;8.50;99.90;;;;;;5112497;28;20371;-82
2022/02/08 12:35:09;;;;;;;23.77;18.55;;;8.30;99.90;;;;;;5055174;28;20384;-81
2022/02/08 12:49:08;;;;;;;22.60;18.42;;;8.50;99.90;;;;;;5110979;28;20417;-81
2022/02/08 12:54:37;;;;;;;22.05;17.63;;;8.50;99.90;;;;;;5112032;28;20378;-81
2022/02/08 13:02:28;;;;;;;26.38;18.50;;;8.60;99.90;;;;;;5112922;28;20485;-82
2022/02/08 14:15:49;;;;;;;21.42;16.73;;;9.20;99.90;;;;;;5115051;28;20421;-81
2022/02/08 14:24:12;;;;;;;20.95;15.75;;;9.30;99.90;;;;;;5051140;28;20396;-79
2022/02/08 14:29:39;;;;;;;18.90;15.13;;;9.30;99.90;;;;;;5098163;28;21081;-79
2022/02/08 15:09:35;;;;;;;15.27;12.38;;;9.60;99.90;;;;;;5117159;28;20363;-81
2022/02/08 15:14:31;;;;;;;14.65;11.77;;;9.50;99.90;;;;;;5119597;28;20391;-80
2022/02/08 15:16:57;;;;;;;14.35;11.60;;;9.60;99.90;;;;;;5100800;28;20374;-81
2022/02/08 15:19:23;;;;;;;12.30;11.13;;;9.50;99.90;;;;;;5100136;28;20409;-81
2022/02/08 15:21:48;;;;;;;15.17;11.37;;;9.60;99.90;;;;;;5116187;28;20876;-81
2022/02/08 15:24:14;;;;;;;11.75;10.48;;;9.70;99.90;;;;;;5117251;28;20367;-81
2022/02/08 15:26:47;;;;;;;12.57;10.80;;;9.60;99.90;;;;;;5099223;28;21212;-82
2022/02/08 15:29:14;;;;;;;11.95;10.75;;;9.60;99.90;;;;;;5111072;28;20391;-81
2022/02/08 15:31:40;;;;;;;12.40;11.15;;;9.60;99.90;;;;;;5099976;28;20436;-82
2022/02/08 15:34:05;;;;;;;12.57;10.90;;;9.50;99.90;;;;;;5103842;27;20388;-82
2022/02/08 15:36:31;;;;;;;14.03;11.63;;;9.50;99.90;;;;;;5138202;27;20365;-80
2022/02/08 15:39:06;;;;;;;12.88;11.45;;;9.50;99.90;;;;;;5119456;27;20389;-81
2022/02/08 15:41:34;;;;;;;12.82;11.50;;;9.40;99.90;;;;;;5120555;27;20390;-81
2022/02/08 15:44:00;;;;;;;12.98;11.43;;;9.40;99.90;;;;;;5139407;27;20862;-80
2022/02/08 15:46:26;;;;;;;13.77;11.85;;;9.40;99.90;;;;;;5124421;27;20419;-80
2022/02/08 15:48:54;;;;;;;13.53;11.80;;;9.40;99.90;;;;;;5078993;28;20766;-82
2022/02/08 15:51:29;;;;;;;13.98;12.57;;;9.40;99.90;;;;;;5077391;28;20462;-81
2022/02/08 15:54:22;;;;;;;16.80;12.75;;;9.40;99.90;;;;;;5080044;28;20392;-82
2022/02/08 16:05:20;;;;;;;18.48;15.55;;;9.30;99.90;;;;;;5100647;28;20522;-81
2022/02/08 16:08:04;;;;;;;18.30;16.30;;;9.30;99.90;;;;;;5098511;28;20392;-81
2022/02/08 16:10:44;;;;;;;17.85;15.80;;;9.30;99.90;;;;;;5078458;28;20432;-81
2022/02/08 16:13:42;;;;;;;19.40;16.35;;;9.30;99.90;;;;;;5117759;28;20413;-82
2022/02/08 16:19:05;;;;;;;20.38;18.17;;;9.20;99.90;;;;;;5096947;28;20465;-81
2022/02/08 16:22:25;;;;;;;20.42;18.10;;;9.10;99.90;;;;;;5096873;28;20372;-81
2022/02/08 16:54:07;;;;;;;20.27;18.00;;;9.00;99.90;;;;;;5110373;28;20388;-82
2022/02/08 16:59:05;;;;;;;19.60;16.85;;;9.00;99.90;;;;;;5108506;28;20386;-83
2022/02/08 17:01:32;;;;;;;21.43;18.73;;;9.10;99.90;;;;;;5092370;28;20406;-83
2022/02/08 17:03:59;;;;;;;19.48;17.35;;;9.00;99.90;;;;;;5090357;28;20776;-82
2022/02/08 17:06:27;;;;;;;22.38;18.65;;;9.00;99.90;;;;;;5110807;28;20410;-82
2022/02/08 17:09:03;;;;;;;21.05;18.30;;;9.10;99.90;;;;;;5109215;28;20426;-82
2022/02/08 17:11:54;;;;;;;22.45;18.42;;;9.10;99.90;;;;;;5108507;28;20371;-83
2022/02/08 17:14:38;;;;;;;22.33;18.98;;;9.00;99.90;;;;;;5108136;28;20752;-83
2022/02/08 17:49:36;;;;;;;21.38;18.88;;;9.00;99.90;;;;;;5095791;28;20950;-84
2022/02/08 17:52:02;;;;;;;21.00;18.73;;;9.10;99.90;;;;;;5109496;28;20413;-83
2022/02/08 17:54:28;;;;;;;22.52;19.13;;;9.00;99.90;;;;;;5077003;28;20372;-82
2022/02/08 17:56:56;;;;;;;21.35;18.27;;;9.10;99.90;;;;;;5075802;28;20433;-82
2022/02/08 17:59:24;;;;;;;21.50;19.20;;;9.20;99.90;;;;;;5095341;28;20383;-82
2022/02/08 18:01:50;;;;;;;21.95;18.98;;;9.20;99.90;;;;;;5095216;28;20424;-82
2022/02/08 18:04:17;;;;;;;22.55;19.92;;;9.20;99.90;;;;;;5101917;28;20472;-81
2022/02/08 18:06:43;;;;;;;21.95;19.38;;;9.10;99.90;;;;;;5113024;28;20367;-82
2022/02/08 18:09:08;;;;;;;23.03;19.87;;;9.10;99.90;;;;;;5114591;28;20500;-80
2022/02/08 18:11:39;;;;;;;22.17;19.58;;;9.10;99.90;;;;;;5096439;28;20602;-82
2022/02/08 18:14:08;;;;;;;23.50;20.60;;;9.10;99.90;;;;;;5116215;28;20364;-82
2022/02/08 18:16:35;;;;;;;21.98;19.23;;;9.20;99.90;;;;;;5076975;28;20400;-82
2022/02/08 18:19:10;;;;;;;24.52;20.58;;;9.10;99.90;;;;;;5092007;28;20856;-83
2022/02/08 18:21:43;;;;;;;24.60;19.83;;;9.10;99.90;;;;;;5075706;28;20443;-82
2022/02/08 19:07:43;;;;;;;33.63;23.47;;;9.10;99.90;;;;;;5091590;28;20461;-83
2022/02/08 19:10:45;;;;;;;33.40;23.85;;;9.20;99.90;;;;;;5098988;28;20479;-81
2022/02/08 19:15:39;;;;;;;33.30;24.63;;;9.10;99.90;;;;;;5093205;28;20384;-81
2022/02/08 19:20:39;;;;;;;35.45;24.27;;;9.10;99.90;;;;;;5109511;28;20434;-82
2022/02/08 19:23:04;;;;;;;33.17;24.05;;;9.10;99.90;;;;;;5092509;28;20844;-82
2022/02/08 19:25:30;;;;;;;31.30;23.20;;;9.10;99.90;;;;;;5097249;28;20475;-82
2022/02/08 19:27:57;;;;;;;33.33;24.17;;;9.20;99.90;;;;;;5095324;28;20471;-83
2022/02/08 19:30:23;;;;;;;34.60;25.20;;;9.20;99.90;;;;;;5089013;28;20898;-83
2022/02/08 19:32:49;;;;;;;38.42;26.85;;;9.20;99.90;;;;;;5094800;28;20459;-82
2022/02/08 19:35:16;;;;;;;38.90;26.88;;;9.30;99.90;;;;;;5104830;28;21276;-83
2022/02/08 19:37:45;;;;;;;36.07;26.17;;;9.10;99.90;;;;;;5091540;28;20731;-82
2022/02/08 19:40:11;;;;;;;35.80;25.38;;;9.20;99.90;;;;;;5077522;27;20407;-82
2022/02/08 19:42:37;;;;;;;38.42;25.50;;;9.10;99.90;;;;;;5091379;27;20403;-82
2022/02/08 19:45:21;;;;;;;36.65;25.55;;;9.10;99.90;;;;;;5098265;27;20376;-84
2022/02/08 19:47:48;;;;;;;33.08;24.90;;;9.20;99.90;;;;;;5104834;28;20662;-82
2022/02/08 19:50:14;;;;;;;35.35;24.80;;;9.20;99.90;;;;;;5100057;28;20833;-82
2022/02/08 19:52:40;;;;;;;34.80;24.75;;;9.10;99.90;;;;;;5086798;28;20388;-83
2022/02/08 19:57:33;;;;;;;32.03;23.13;;;9.10;99.90;;;;;;5099097;28;20382;-81
2022/02/08 20:00:05;;;;;;;34.08;23.55;;;9.20;99.90;;;;;;5112034;27;20729;-82
2022/02/08 20:02:31;;;;;;;33.03;23.65;;;9.10;99.90;;;;;;5099338;27;20396;-82
2022/02/08 20:04:56;;;;;;;31.07;22.80;;;9.20;99.90;;;;;;5089384;28;20373;-83
2022/02/08 20:07:22;;;;;;;33.97;23.25;;;9.20;99.90;;;;;;5090590;28;20894;-83
2022/02/08 20:09:48;;;;;;;32.95;22.38;;;9.10;99.90;;;;;;5092426;28;20451;-82
2022/02/08 20:12:13;;;;;;;30.03;22.53;;;9.10;99.90;;;;;;5097928;27;20418;-83
2022/02/08 20:14:39;;;;;;;32.00;22.70;;;9.20;99.90;;;;;;5080442;28;20828;-81
2022/02/08 20:17:04;;;;;;;30.42;22.67;;;9.20;99.90;;;;;;5071463;28;20379;-82
2022/02/08 20:19:30;;;;;;;37.20;24.40;;;9.20;99.90;;;;;;5111601;28;20387;-81
2022/02/08 20:22:04;;;;;;;33.78;23.17;;;9.10;99.90;;;;;;5087049;28;21072;-82
2022/02/08 20:24:30;;;;;;;28.50;21.90;;;9.10;99.90;;;;;;5108616;28;20391;-83
2022/02/08 20:29:31;;;;;;;29.92;22.48;;;9.10;99.90;;;;;;5105690;28;20390;-83
2022/02/08 20:31:58;;;;;;;30.25;22.17;;;9.10;99.90;;;;;;5088765;28;20382;-83
2022/02/08 20:34:27;;;;;;;31.63;21.20;;;9.20;99.90;;;;;;5086811;28;20856;-82
2022/02/08 20:36:58;;;;;;;27.23;20.73;;;9.20;99.90;;;;;;5103538;28;20418;-82
2022/02/08 20:39:24;;;;;;;27.27;20.87;;;9.20;99.90;;;;;;5099486;28;20384;-83
2022/02/08 20:41:51;;;;;;;28.00;20.33;;;9.20;99.90;;;;;;5109689;27;20381;-83
2022/02/08 20:44:18;;;;;;;28.77;21.58;;;9.20;99.90;;;;;;5105271;28;20383;-82
2022/02/08 20:46:51;;;;;;;28.45;21.67;;;9.20;99.90;;;;;;5104683;28;20367;-81
2022/02/08 20:49:18;;;;;;;27.20;21.15;;;9.20;99.90;;;;;;5103315;28;20409;-83
2022/02/08 20:51:44;;;;;;;27.60;21.20;;;9.30;99.90;;;;;;5107433;27;20768;-82
2022/02/08 20:54:13;;;;;;;27.70;21.17;;;9.20;99.90;;;;;;5107965;28;20379;-82